Terminal Aerodrome Forecast
Issued by NWS

Home | Current Version | Previous Version | Text Only | Print | Product List | Glossary On
Versions: 1 2 3 4 5 6 7 8 9 10 11 12 13 14
296
FTUS43 KLSX 011520 AAA
TAFSUS
TAF AMD
KSUS 011520Z 0115/0212 28009KT P6SM BKN025
     FM011700 27010G18KT P6SM BKN025
     FM012300 26008KT P6SM SCT030
     FM020200 26003KT P6SM SCT200=

USA.gov is the U.S. government's official web portal to all federal, state and local government web resources and services.